Time;durP1;ratioP1;P1;durP2;ratioP2;P2;SDS_P1;SDS_P2;PMS_P1;PMS_P2;Temp;Humidity;BMP_temperature;BMP_pressure;BME280_temperature;BME280_humidity;BME280_pressure;Samples;Min_cycle;Max_cycle;Signal;HPM_P1;HPM_P2
2023/06/08 00:02:17;;;;;;;4.28;3.88;;;;;;;16.31;96.24;98300.31;4970374;28;20243;-56
2023/06/08 00:04:44;;;;;;;6.80;4.18;;;;;;;16.30;95.99;98301.28;4970139;28;20223;-56
2023/06/08 00:07:14;;;;;;;3.90;3.50;;;;;;;16.16;95.72;98271.25;4970279;28;20288;-56
2023/06/08 00:09:40;;;;;;;5.13;3.80;;;;;;;16.20;95.94;98272.63;4970293;28;20606;-56
2023/06/08 00:12:06;;;;;;;6.05;3.88;;;;;;;16.31;95.41;98295.09;4970199;28;20287;-56
2023/06/08 00:14:36;;;;;;;3.88;3.45;;;;;;;16.31;96.06;98292.50;4970213;28;20611;-56
2023/06/08 00:17:03;;;;;;;4.40;4.00;;;;;;;16.32;96.68;98286.34;4970172;28;20279;-56
2023/06/08 00:19:33;;;;;;;3.92;3.45;;;;;;;16.26;97.65;98295.53;4970157;28;20675;-56
2023/06/08 00:22:04;;;;;;;4.50;3.42;;;;;;;16.12;98.92;98279.50;4950613;29;20809;-56
2023/06/08 00:24:39;;;;;;;4.00;3.70;;;;;;;16.10;97.68;98260.56;4950825;29;20577;-56
2023/06/08 00:27:06;;;;;;;4.88;3.20;;;;;;;16.15;97.86;98271.41;4950853;29;20254;-56
2023/06/08 00:29:32;;;;;;;3.87;3.50;;;;;;;16.13;97.59;98255.06;4910925;29;1163833;-56
2023/06/08 00:31:58;;;;;;;5.38;4.05;;;;;;;16.28;96.57;98284.97;4951654;29;20197;-56
2023/06/08 00:34:25;;;;;;;3.65;3.35;;;;;;;16.20;97.40;98266.59;4951589;29;20200;-57
2023/06/08 00:36:50;;;;;;;3.97;3.58;;;;;;;16.20;95.21;98261.38;5008050;28;20220;-57
2023/06/08 00:39:16;;;;;;;4.18;3.78;;;;;;;16.36;94.52;98282.44;5009800;28;20183;-56
2023/06/08 00:41:41;;;;;;;3.65;3.33;;;;;;;16.06;95.43;98243.53;5009779;28;20219;-56
2023/06/08 00:44:08;;;;;;;4.20;3.65;;;;;;;16.24;95.09;98265.31;5009807;28;20264;-56
2023/06/08 00:46:35;;;;;;;4.25;3.85;;;;;;;16.23;93.34;98272.34;4952681;28;20233;-57
2023/06/08 00:49:01;;;;;;;4.38;4.00;;;;;;;16.13;93.48;98250.66;4916851;29;20221;-56
2023/06/08 00:51:36;;;;;;;4.75;3.40;;;;;;;15.99;95.01;98247.69;4917226;29;20708;-56
2023/06/08 00:54:02;;;;;;;4.00;3.60;;;;;;;15.93;96.03;98269.13;4934717;29;20664;-56
2023/06/08 00:56:31;;;;;;;3.58;3.13;;;;;;;15.89;97.39;98271.22;4936120;29;20675;-56
2023/06/08 00:59:00;;;;;;;4.43;3.47;;;;;;;15.76;97.86;98241.16;4935805;29;20198;-56
2023/06/08 01:01:35;;;;;;;3.92;3.63;;;;;;;15.88;96.84;98266.13;4935670;29;20206;-56
2023/06/08 01:04:08;;;;;;;4.57;3.65;;;;;;;15.84;97.43;98270.81;4935741;29;20633;-57
2023/06/08 01:06:39;;;;;;;4.10;3.67;;;;;;;15.72;97.19;98252.84;4916725;29;20322;-57
2023/06/08 01:09:04;;;;;;;3.90;3.60;;;;;;;15.82;97.06;98272.75;4897510;29;20195;-57
2023/06/08 01:11:57;;;;;;;3.28;3.08;;;;;;;15.81;98.50;98265.06;4897735;29;20195;-56
2023/06/08 01:15:10;;;;;;;3.78;3.47;;;;;;;15.69;100.00;98263.56;4897184;29;20188;-56
2023/06/08 01:17:42;;;;;;;4.35;3.90;;;;;;;15.54;100.00;98231.06;4843136;29;20201;-56
2023/06/08 01:20:10;;;;;;;3.45;3.15;;;;;;;15.56;100.00;98263.03;4862120;29;20205;-56
2023/06/08 01:22:57;;;;;;;4.18;3.50;;;;;;;15.62;100.00;98257.28;4878818;29;20355;-56
2023/06/08 01:25:30;;;;;;;5.15;3.80;;;;;;;15.63;100.00;98254.50;4873182;29;20170;-56
2023/06/08 01:28:13;;;;;;;4.97;3.55;;;;;;;15.84;98.63;98259.53;4878846;29;20203;-56
2023/06/08 01:30:40;;;;;;;5.38;4.25;;;;;;;15.78;96.68;98234.84;4878544;29;20300;-57
2023/06/08 01:33:07;;;;;;;6.07;3.75;;;;;;;15.88;96.07;98260.91;4878674;29;20246;-56
2023/06/08 01:35:32;;;;;;;4.03;3.72;;;;;;;15.67;96.47;98224.56;4878637;29;20720;-56
2023/06/08 01:38:09;;;;;;;4.13;3.72;;;;;;;15.90;97.95;98261.59;4867797;29;20191;-56
2023/06/08 01:40:37;;;;;;;4.35;3.95;;;;;;;15.75;98.79;98242.13;4923519;29;20196;-56
2023/06/08 01:43:08;;;;;;;3.97;3.20;;;;;;;15.76;99.35;98259.44;4935047;29;20236;-56
2023/06/08 01:45:38;;;;;;;4.10;3.72;;;;;;;15.75;99.11;98266.41;4945971;29;20197;-56
2023/06/08 01:48:05;;;;;;;4.20;3.90;;;;;;;15.67;99.62;98263.69;4954124;29;20208;-56
2023/06/08 01:50:33;;;;;;;3.65;3.30;;;;;;;15.46;100.00;98238.75;4954099;29;20189;-57
2023/06/08 01:52:59;;;;;;;5.32;3.60;;;;;;;15.65;100.00;98262.19;4960048;28;20182;-56
2023/06/08 01:55:27;;;;;;;5.70;3.83;;;;;;;15.59;100.00;98260.16;5032064;28;20229;-56
2023/06/08 01:57:53;;;;;;;4.55;3.50;;;;;;;15.42;100.00;98237.38;5031619;28;20174;-56
2023/06/08 02:00:20;;;;;;;4.85;4.05;;;;;;;15.57;100.00;98249.84;5031973;28;20191;-57
2023/06/08 02:02:46;;;;;;;3.92;3.63;;;;;;;15.71;98.85;98257.25;5031815;28;20603;-56
2023/06/08 02:05:13;;;;;;;4.53;3.63;;;;;;;15.81;98.82;98265.06;5031858;28;20198;-56
2023/06/08 02:07:39;;;;;;;5.80;3.75;;;;;;;15.72;98.41;98256.28;5031775;28;20186;-56
2023/06/08 02:10:06;;;;;;;5.78;3.72;;;;;;;15.51;99.80;98237.38;5031741;28;20288;-57
2023/06/08 02:12:32;;;;;;;4.22;3.75;;;;;;;15.52;100.00;98249.44;5031832;28;20329;-56
2023/06/08 02:14:57;;;;;;;4.22;3.47;;;;;;;15.48;100.00;98253.31;5040872;28;20709;-56
2023/06/08 02:17:33;;;;;;;4.88;4.10;;;;;;;15.42;100.00;98229.56;5073962;28;20203;-57
2023/06/08 02:20:00;;;;;;;4.57;3.50;;;;;;;15.64;100.00;98265.78;5073971;28;20161;-56
2023/06/08 02:22:27;;;;;;;4.15;3.75;;;;;;;15.57;99.43;98241.22;5073702;28;20189;-57
2023/06/08 02:24:52;;;;;;;3.83;3.50;;;;;;;15.55;98.37;98236.13;5073801;28;20177;-56
2023/06/08 02:27:18;;;;;;;4.40;4.00;;;;;;;15.68;99.15;98264.53;5073502;28;20172;-56
2023/06/08 02:29:43;;;;;;;4.10;3.70;;;;;;;15.39;100.00;98248.09;5073530;28;20200;-56
2023/06/08 02:32:09;;;;;;;3.97;3.55;;;;;;;15.49;100.00;98272.38;5073408;28;20181;-56
2023/06/08 02:34:38;;;;;;;4.13;3.80;;;;;;;15.30;100.00;98233.25;5073606;28;20219;-57
2023/06/08 02:37:04;;;;;;;4.32;3.92;;;;;;;15.32;100.00;98252.16;5073553;28;20639;-56
2023/06/08 02:39:29;;;;;;;4.05;3.65;;;;;;;15.33;100.00;98264.31;5073312;28;20204;-57
2023/06/08 02:41:55;;;;;;;4.15;3.75;;;;;;;15.20;100.00;98255.88;5073423;28;20367;-56
2023/06/08 02:44:20;;;;;;;4.03;3.70;;;;;;;15.10;100.00;98268.91;5073439;28;20231;-60
2023/06/08 02:46:46;;;;;;;4.07;3.67;;;;;;;15.03;100.00;98259.16;5073274;28;20559;-57
2023/06/08 02:49:12;;;;;;;5.22;3.40;;;;;;;14.87;100.00;98235.44;5073296;28;20532;-56
2023/06/08 02:51:37;;;;;;;5.15;3.88;;;;;;;14.82;100.00;98233.22;5073313;28;20205;-56
2023/06/08 02:54:03;;;;;;;6.28;4.05;;;;;;;15.05;100.00;98257.25;5073201;28;20268;-56
2023/06/08 02:56:28;;;;;;;4.00;3.60;;;;;;;14.85;100.00;98232.13;5073130;28;20719;-56
2023/06/08 02:58:54;;;;;;;4.15;3.75;;;;;;;15.10;100.00;98265.50;5073129;28;20181;-56
2023/06/08 03:01:20;;;;;;;5.13;3.97;;;;;;;15.05;100.00;98268.50;5073301;28;20172;-56
2023/06/08 03:03:46;;;;;;;7.40;3.80;;;;;;;15.01;100.00;98269.75;5072719;28;20177;-56
2023/06/08 03:06:17;;;;;;;4.13;3.65;;;;;;;15.19;100.00;98265.50;5072679;28;20178;-56
2023/06/08 03:08:46;;;;;;;3.80;3.50;;;;;;;15.22;100.00;98251.38;5072215;28;20232;-56
2023/06/08 03:11:13;;;;;;;3.75;3.45;;;;;;;15.29;100.00;98268.09;5072612;28;20282;-56
2023/06/08 03:13:38;;;;;;;4.68;4.28;;;;;;;15.13;100.00;98231.34;5072743;28;20327;-56
2023/06/08 03:16:04;;;;;;;4.18;3.75;;;;;;;15.29;100.00;98260.28;5073117;28;20264;-56
2023/06/08 03:18:29;;;;;;;4.13;3.72;;;;;;;15.31;100.00;98261.78;5072736;28;20181;-56
2023/06/08 03:20:55;;;;;;;6.57;3.53;;;;;;;15.50;100.00;98266.19;5072489;28;20180;-56
2023/06/08 03:23:21;;;;;;;4.25;3.50;;;;;;;15.61;100.00;98268.66;5072276;28;20666;-57
2023/06/08 03:25:48;;;;;;;4.10;3.60;;;;;;;15.56;99.37;98263.03;5072659;28;20177;-57
2023/06/08 03:28:15;;;;;;;4.78;3.42;;;;;;;15.58;98.89;98253.28;5072569;28;20177;-57
2023/06/08 03:30:41;;;;;;;6.00;4.20;;;;;;;15.70;98.26;98263.44;5072106;28;20196;-57
2023/06/08 03:33:06;;;;;;;5.72;3.58;;;;;;;15.72;98.74;98279.75;5010355;28;20546;-57
2023/06/08 03:35:32;;;;;;;4.28;3.88;;;;;;;15.63;99.19;98261.53;5010535;28;20609;-57
2023/06/08 03:37:57;;;;;;;4.45;3.20;;;;;;;15.46;100.00;98265.63;5010495;28;20191;-57
2023/06/08 03:40:22;;;;;;;5.45;4.00;;;;;;;15.45;100.00;98277.03;5010457;28;20178;-57
2023/06/08 03:42:50;;;;;;;3.67;3.38;;;;;;;15.52;100.00;98269.50;4990560;28;20274;-57
2023/06/08 03:45:19;;;;;;;4.32;3.60;;;;;;;15.57;100.00;98256.88;4990683;28;20199;-57
2023/06/08 03:47:44;;;;;;;4.53;3.80;;;;;;;15.79;99.19;98277.41;4990723;28;20639;-57
2023/06/08 03:50:13;;;;;;;4.10;3.65;;;;;;;15.80;98.30;98261.59;4990676;28;20259;-57
2023/06/08 03:52:39;;;;;;;3.97;3.53;;;;;;;15.89;96.31;98254.72;4990607;28;20262;-57
2023/06/08 03:55:08;;;;;;;4.90;3.40;;;;;;;16.13;95.91;98281.16;4990676;28;20276;-57
2023/06/08 03:57:33;;;;;;;5.10;3.83;;;;;;;16.13;96.20;98270.72;4990584;28;20202;-58
2023/06/08 03:59:59;;;;;;;4.05;3.72;;;;;;;16.23;95.18;98281.94;4990578;28;20187;-58
2023/06/08 04:02:24;;;;;;;3.80;3.50;;;;;;;16.12;95.44;98264.69;4990416;28;20638;-58
2023/06/08 04:04:50;;;;;;;8.15;3.75;;;;;;;16.10;95.66;98276.22;4990511;28;20234;-57
2023/06/08 04:07:16;;;;;;;3.88;3.53;;;;;;;15.99;95.54;98268.56;4990484;28;20187;-58
2023/06/08 04:09:42;;;;;;;4.53;3.50;;;;;;;16.15;95.40;98269.59;4996671;28;20182;-56
2023/06/08 04:12:08;;;;;;;4.00;3.50;;;;;;;16.36;94.72;98285.06;5029771;28;20189;-56
2023/06/08 04:14:33;;;;;;;3.72;3.30;;;;;;;16.31;94.55;98285.50;5064232;28;20215;-56
2023/06/08 04:17:00;;;;;;;3.80;3.50;;;;;;;16.29;95.24;98286.59;5029630;28;20217;-56
2023/06/08 04:19:25;;;;;;;4.00;3.70;;;;;;;16.34;94.70;98292.22;5029990;28;20276;-56
2023/06/08 04:21:56;;;;;;;4.55;3.58;;;;;;;16.33;94.92;98303.63;5033258;28;20693;-56
2023/06/08 04:24:22;;;;;;;6.18;3.47;;;;;;;16.31;95.05;98302.94;5033734;28;20174;-56
2023/06/08 04:26:48;;;;;;;5.95;3.70;;;;;;;16.50;94.31;98297.69;5033689;28;20208;-57
2023/06/08 04:29:13;;;;;;;4.82;3.70;;;;;;;16.46;93.31;98275.44;5033718;28;20269;-56
2023/06/08 04:31:39;;;;;;;5.55;3.50;;;;;;;16.56;92.99;98273.59;5033512;28;20668;-56
2023/06/08 04:34:04;;;;;;;3.92;3.53;;;;;;;16.82;91.35;98301.50;5033647;28;20269;-56
2023/06/08 04:36:31;;;;;;;5.80;4.20;;;;;;;16.84;91.32;98301.38;5033600;28;20197;-56
2023/06/08 04:38:56;;;;;;;3.80;3.40;;;;;;;16.66;92.29;98285.63;5033578;28;20178;-57
2023/06/08 04:41:25;;;;;;;4.53;3.38;;;;;;;16.73;91.34;98291.13;5033424;28;20687;-56
2023/06/08 04:43:52;;;;;;;3.90;3.10;;;;;;;16.75;91.41;98297.84;5033375;28;20670;-56
2023/06/08 04:46:17;;;;;;;3.83;3.47;;;;;;;16.77;91.40;98287.22;5033321;28;20232;-56
2023/06/08 04:48:43;;;;;;;5.57;3.60;;;;;;;16.77;91.04;98271.53;5059571;28;20184;-56
2023/06/08 04:51:09;;;;;;;3.72;3.42;;;;;;;16.87;91.59;98303.69;5075613;28;20180;-56
2023/06/08 04:53:35;;;;;;;4.40;3.67;;;;;;;16.98;90.94;98295.63;5075507;28;20192;-56
2023/06/08 04:56:02;;;;;;;4.40;3.65;;;;;;;17.06;89.35;98299.16;5075501;28;20259;-56
2023/06/08 04:58:29;;;;;;;3.92;3.55;;;;;;;17.09;89.29;98295.41;5075328;28;20267;-56
2023/06/08 05:00:55;;;;;;;6.63;3.63;;;;;;;17.21;89.05;98289.81;5075388;28;20180;-56
2023/06/08 05:03:22;;;;;;;3.40;3.10;;;;;;;17.27;88.85;98291.03;5075344;28;20203;-56
2023/06/08 05:05:48;;;;;;;4.82;3.75;;;;;;;17.36;87.95;98290.09;5075307;28;20180;-57
2023/06/08 05:08:14;;;;;;;3.80;3.50;;;;;;;17.36;87.05;98284.88;5075264;28;20196;-56
2023/06/08 05:10:39;;;;;;;3.75;3.45;;;;;;;17.55;86.99;98300.47;5075189;28;20677;-57
2023/06/08 05:13:05;;;;;;;4.22;3.83;;;;;;;17.72;86.05;98312.72;5075131;28;20180;-56
2023/06/08 05:15:33;;;;;;;4.00;3.60;;;;;;;17.82;85.71;98314.25;5074814;28;20739;-57
2023/06/08 05:17:59;;;;;;;3.50;3.22;;;;;;;17.92;85.00;98314.16;5075085;28;20318;-56
2023/06/08 05:20:26;;;;;;;4.20;3.70;;;;;;;17.81;85.90;98311.78;5074913;28;20665;-57
2023/06/08 05:22:52;;;;;;;6.82;3.95;;;;;;;17.78;85.34;98293.78;5074941;28;20188;-56
2023/06/08 05:25:18;;;;;;;7.70;3.85;;;;;;;17.85;83.78;98306.09;5074940;28;20193;-56
2023/06/08 05:27:43;;;;;;;6.55;3.70;;;;;;;17.82;84.22;98297.72;5012693;28;20290;-56
2023/06/08 05:30:09;;;;;;;3.25;2.97;;;;;;;17.96;84.08;98310.28;5012584;28;20222;-57
2023/06/08 05:32:35;;;;;;;5.40;3.47;;;;;;;18.20;83.37;98329.56;5012030;28;20333;-57
2023/06/08 05:35:01;;;;;;;4.18;3.53;;;;;;;18.36;82.90;98334.13;5012766;28;20182;-56
2023/06/08 05:37:26;;;;;;;3.97;3.15;;;;;;;18.37;82.90;98314.81;5012698;28;20313;-56
2023/06/08 05:39:52;;;;;;;3.85;3.15;;;;;;;18.55;82.15;98344.38;5012620;28;20643;-56
2023/06/08 05:42:17;;;;;;;5.45;3.42;;;;;;;18.48;82.99;98317.16;5012741;28;20218;-56
2023/06/08 05:44:44;;;;;;;4.03;3.47;;;;;;;18.64;83.52;98340.81;5012565;28;20189;-56
2023/06/08 05:47:09;;;;;;;3.45;3.15;;;;;;;18.70;84.14;98332.31;5012511;28;20198;-56
2023/06/08 05:49:34;;;;;;;6.53;3.55;;;;;;;18.74;83.40;98333.66;5012475;28;20182;-56
2023/06/08 05:52:00;;;;;;;4.13;3.70;;;;;;;18.55;83.83;98305.91;5012387;28;20183;-56
2023/06/08 05:54:25;;;;;;;6.70;3.65;;;;;;;18.67;84.54;98306.44;5012384;28;20277;-56
2023/06/08 05:56:51;;;;;;;5.38;4.32;;;;;;;18.89;85.15;98330.25;5012363;28;20577;-56
2023/06/08 05:59:16;;;;;;;6.40;4.28;;;;;;;18.97;85.31;98330.31;5058095;28;20618;-56
2023/06/08 06:01:42;;;;;;;9.13;4.30;;;;;;;19.09;83.98;98323.78;5074250;28;20172;-56
2023/06/08 06:04:08;;;;;;;4.20;3.58;;;;;;;19.22;82.80;98318.09;5074261;28;20686;-56
2023/06/08 06:06:33;;;;;;;7.82;3.85;;;;;;;19.47;81.08;98336.34;5074250;28;20173;-56
2023/06/08 06:08:59;;;;;;;7.93;3.80;;;;;;;19.58;80.72;98327.34;5074108;28;20183;-56
2023/06/08 06:11:25;;;;;;;4.65;4.25;;;;;;;19.60;80.81;98309.63;5074135;28;20177;-56
2023/06/08 06:13:51;;;;;;;5.50;4.63;;;;;;;19.76;80.14;98336.69;5073768;28;20188;-56
2023/06/08 06:16:16;;;;;;;10.68;5.15;;;;;;;19.90;80.41;98338.69;5073729;28;20200;-56
2023/06/08 06:18:43;;;;;;;6.60;4.20;;;;;;;20.01;79.28;98342.78;5073950;28;20180;-57
2023/06/08 06:21:08;;;;;;;9.73;4.32;;;;;;;20.14;78.22;98335.22;5073785;28;20183;-57
2023/06/08 06:23:34;;;;;;;6.38;4.55;;;;;;;20.25;77.48;98337.50;5073804;28;20200;-56
2023/06/08 06:26:00;;;;;;;8.23;4.05;;;;;;;20.27;77.36;98325.00;5074162;28;20187;-56
2023/06/08 06:28:25;;;;;;;11.63;3.80;;;;;;;20.37;76.77;98331.75;5073835;28;20172;-56
2023/06/08 06:30:51;;;;;;;8.88;4.20;;;;;;;20.43;75.47;98327.59;5073605;28;20188;-57
2023/06/08 06:33:16;;;;;;;5.95;4.25;;;;;;;20.52;74.60;98335.31;5011490;28;20190;-57
2023/06/08 06:35:42;;;;;;;6.68;4.38;;;;;;;20.55;75.20;98326.25;5011570;28;20189;-57
2023/06/08 06:38:08;;;;;;;7.25;4.75;;;;;;;20.57;76.10;98324.31;5011530;28;20195;-57
2023/06/08 06:40:33;;;;;;;6.97;4.85;;;;;;;20.60;74.69;98313.44;5011554;28;20170;-57
2023/06/08 06:42:58;;;;;;;9.10;4.82;;;;;;;20.72;74.14;98320.78;5010954;28;20654;-58
2023/06/08 06:45:25;;;;;;;10.60;4.82;;;;;;;20.64;73.08;98320.00;5010632;28;20685;-58
2023/06/08 06:47:50;;;;;;;6.68;4.88;;;;;;;20.59;73.89;98294.22;4972278;28;20564;-58
2023/06/08 06:50:16;;;;;;;12.75;5.80;;;;;;;20.67;74.14;98303.88;4972340;28;20188;-58
2023/06/08 06:52:41;;;;;;;27.15;6.68;;;;;;;20.73;73.95;98297.91;4972139;28;20192;-58
2023/06/08 06:55:07;;;;;;;8.85;4.93;;;;;;;20.72;72.15;98314.69;4972258;28;20307;-58
2023/06/08 06:57:32;;;;;;;50.58;6.93;;;;;;;20.65;71.84;98293.53;4972177;28;20708;-55
2023/06/08 07:00:01;;;;;;;11.02;4.55;;;;;;;20.78;69.88;98306.13;4972040;28;20203;-55
2023/06/08 07:02:29;;;;;;;14.77;4.63;;;;;;;20.88;70.31;98312.00;4971873;28;20231;-57
2023/06/08 07:04:56;;;;;;;7.35;4.25;;;;;;;20.97;69.24;98301.31;5006354;28;20244;-57
2023/06/08 07:07:23;;;;;;;6.35;4.70;;;;;;;21.12;69.28;98310.09;5030723;28;20189;-58
2023/06/08 07:09:48;;;;;;;8.63;4.75;;;;;;;21.09;69.21;98309.63;5030746;28;20182;-58
2023/06/08 07:12:14;;;;;;;8.50;4.70;;;;;;;20.98;68.42;98291.59;5030664;28;20220;-58
2023/06/08 07:14:39;;;;;;;10.40;4.43;;;;;;;21.08;68.38;98302.72;5030526;28;20190;-56
2023/06/08 07:17:05;;;;;;;9.80;4.53;;;;;;;21.01;68.77;98283.34;5010562;28;20198;-56
2023/06/08 07:19:31;;;;;;;8.43;4.93;;;;;;;21.15;66.83;98304.47;5026333;28;20185;-56
2023/06/08 07:21:56;;;;;;;8.60;4.88;;;;;;;21.18;68.00;98298.06;5030280;28;20205;-57
2023/06/08 07:24:21;;;;;;;4.03;3.70;;;;;;;21.29;66.74;98295.03;4990984;28;20194;-56
2023/06/08 07:26:47;;;;;;;7.13;4.75;;;;;;;21.08;69.53;98300.06;4991027;28;20191;-57
2023/06/08 07:29:13;;;;;;;11.68;5.15;;;;;;;21.08;67.61;98292.19;4991031;28;20233;-57
2023/06/08 07:31:39;;;;;;;9.40;4.50;;;;;;;20.99;67.46;98287.97;4990850;28;20246;-56
2023/06/08 07:34:06;;;;;;;5.82;4.32;;;;;;;20.97;68.32;98280.25;4990974;28;20246;-56
2023/06/08 07:36:32;;;;;;;7.55;4.32;;;;;;;21.17;68.62;98281.47;4990939;28;20253;-56
2023/06/08 07:39:04;;;;;;;8.18;3.72;;;;;;;21.41;68.23;98298.91;4990870;28;20191;-57
2023/06/08 07:41:29;;;;;;;6.13;4.13;;;;;;;21.58;68.32;98300.41;4990816;28;20692;-57
2023/06/08 07:43:55;;;;;;;6.35;3.67;;;;;;;21.51;67.18;98281.84;4990835;28;20179;-56
2023/06/08 07:46:21;;;;;;;4.55;3.80;;;;;;;21.28;68.22;98283.66;4990840;28;20707;-56
2023/06/08 07:48:47;;;;;;;7.93;3.42;;;;;;;21.23;69.51;98269.41;5015000;28;20686;-57
2023/06/08 07:51:14;;;;;;;6.25;4.32;;;;;;;21.26;69.21;98290.94;5030072;28;20181;-56
2023/06/08 07:53:39;;;;;;;7.82;4.05;;;;;;;21.11;69.11;98300.59;5029999;28;20178;-56
2023/06/08 07:56:05;;;;;;;6.28;3.63;;;;;;;21.00;70.85;98264.13;5063651;28;20542;-57
2023/06/08 07:58:31;;;;;;;9.52;3.75;;;;;;;20.93;71.97;98265.78;5072287;28;20177;-57
2023/06/08 08:00:58;;;;;;;7.68;3.95;;;;;;;21.01;72.07;98278.94;5071956;28;20561;-57
2023/06/08 08:03:23;;;;;;;4.47;3.88;;;;;;;21.06;71.50;98268.69;5072147;28;20330;-57
2023/06/08 08:05:49;;;;;;;3.58;3.20;;;;;;;21.13;70.09;98282.78;5072207;28;20267;-57
2023/06/08 08:08:15;;;;;;;3.92;2.95;;;;;;;21.12;70.22;98281.16;5072222;28;20214;-57
2023/06/08 08:10:41;;;;;;;6.88;2.58;;;;;;;21.17;68.92;98280.63;5072165;28;20253;-57
2023/06/08 08:13:07;;;;;;;4.30;2.80;;;;;;;21.34;68.32;98271.63;5071886;28;20181;-57
2023/06/08 08:15:32;;;;;;;4.95;2.90;;;;;;;21.67;67.31;98288.84;5049508;28;20326;-57
2023/06/08 08:17:58;;;;;;;6.25;3.10;;;;;;;21.72;67.74;98271.53;5049953;28;20271;-57
2023/06/08 08:20:23;;;;;;;4.35;2.70;;;;;;;21.89;66.41;98282.72;5049681;28;20189;-57
2023/06/08 08:22:49;;;;;;;3.08;2.88;;;;;;;22.05;65.99;98282.56;5049581;28;20209;-58
2023/06/08 08:25:14;;;;;;;4.57;2.70;;;;;;;22.11;64.72;98281.84;5049674;28;20192;-58
2023/06/08 08:27:39;;;;;;;5.70;2.75;;;;;;;22.16;64.17;98276.88;5049615;28;20181;-58
2023/06/08 08:30:06;;;;;;;4.65;2.80;;;;;;;22.18;64.06;98282.75;5049502;28;20370;-57
2023/06/08 08:32:31;;;;;;;3.70;2.50;;;;;;;22.18;64.96;98280.13;5029453;28;20596;-57
2023/06/08 08:34:56;;;;;;;3.20;2.40;;;;;;;22.16;64.18;98253.16;5029595;28;20193;-57
2023/06/08 08:37:22;;;;;;;3.15;2.55;;;;;;;22.31;63.50;98282.97;5029553;28;20240;-57
2023/06/08 08:39:47;;;;;;;9.15;2.63;;;;;;;22.21;62.80;98245.50;5029433;28;20197;-57
2023/06/08 08:42:21;;;;;;;3.78;2.22;;;;;;;22.41;61.25;98268.50;5029536;28;20268;-56
2023/06/08 08:44:49;;;;;;;3.97;2.42;;;;;;;22.27;61.81;98264.03;5029540;28;20170;-57
2023/06/08 08:47:15;;;;;;;2.78;2.58;;;;;;;22.18;62.36;98240.59;5029363;28;20186;-57
2023/06/08 08:49:43;;;;;;;4.00;3.08;;;;;;;22.42;62.44;98248.22;5029511;28;20558;-56
2023/06/08 08:52:09;;;;;;;6.90;2.72;;;;;;;22.48;63.63;98264.16;5024553;28;20275;-56
2023/06/08 08:54:38;;;;;;;4.70;2.97;;;;;;;22.65;63.12;98267.41;5049215;28;20506;-56
2023/06/08 08:57:06;;;;;;;3.20;2.60;;;;;;;22.87;62.41;98271.75;5049292;28;20528;-56
2023/06/08 08:59:33;;;;;;;3.38;2.75;;;;;;;23.06;61.39;98268.50;5049086;28;20192;-57
2023/06/08 09:01:58;;;;;;;2.70;2.50;;;;;;;23.04;60.87;98266.09;5008120;28;20713;-56
2023/06/08 09:04:24;;;;;;;4.70;2.75;;;;;;;22.97;61.28;98251.16;5009400;28;20513;-56
2023/06/08 09:06:50;;;;;;;3.17;2.88;;;;;;;23.07;62.05;98254.34;5009739;28;20350;-56
2023/06/08 09:09:16;;;;;;;5.30;2.42;;;;;;;23.01;62.10;98255.09;5013199;28;20327;-56
2023/06/08 09:12:02;;;;;;;3.80;2.45;;;;;;;23.06;60.57;98234.19;5013224;28;20206;-57
2023/06/08 09:14:29;;;;;;;3.25;2.67;;;;;;;23.22;60.79;98253.31;5013129;28;20198;-57
2023/06/08 09:16:58;;;;;;;11.85;3.58;;;;;;;23.28;60.56;98230.59;5013107;28;20281;-57
2023/06/08 09:19:24;;;;;;;2.47;2.33;;;;;;;23.31;61.05;98232.88;5013069;28;20573;-56
2023/06/08 09:21:50;;;;;;;2.70;2.50;;;;;;;23.31;61.62;98217.84;5012891;28;20201;-56
2023/06/08 09:24:19;;;;;;;2.55;2.13;;;;;;;23.52;61.59;98222.28;5012952;28;20661;-56
2023/06/08 09:26:47;;;;;;;6.35;2.88;;;;;;;23.83;59.68;98238.59;5012860;28;20219;-56
2023/06/08 09:29:40;;;;;;;4.85;2.90;;;;;;;23.96;59.67;98241.38;5012799;28;20190;-57
2023/06/08 09:32:08;;;;;;;3.40;2.90;;;;;;;23.67;61.21;98211.44;5018810;28;20312;-56
2023/06/08 09:34:47;;;;;;;6.00;2.63;;;;;;;24.00;60.23;98242.63;5055824;28;20196;-56
2023/06/08 09:37:14;;;;;;;5.97;2.72;;;;;;;23.97;59.37;98227.97;5074545;28;20161;-57
2023/06/08 09:39:44;;;;;;;3.22;2.70;;;;;;;24.05;59.22;98227.81;5074736;28;20191;-57
2023/06/08 09:42:10;;;;;;;3.47;2.72;;;;;;;24.14;59.98;98216.88;5074649;28;20181;-56
2023/06/08 09:44:37;;;;;;;4.88;2.78;;;;;;;24.34;59.92;98241.63;5074633;28;20208;-56
2023/06/08 09:47:19;;;;;;;5.05;3.05;;;;;;;24.27;59.74;98232.00;5012424;28;20190;-56
2023/06/08 09:49:44;;;;;;;6.03;3.20;;;;;;;24.41;59.61;98234.53;5012629;28;20253;-57
2023/06/08 09:52:10;;;;;;;5.75;3.30;;;;;;;24.45;59.13;98205.84;5012461;28;20281;-57
2023/06/08 09:54:36;;;;;;;5.60;2.80;;;;;;;24.64;57.16;98205.97;5012689;28;20541;-57
2023/06/08 09:57:04;;;;;;;4.38;2.90;;;;;;;24.64;56.66;98207.78;5012415;28;20253;-56
2023/06/08 09:59:40;;;;;;;4.68;2.78;;;;;;;24.69;55.75;98224.72;5012524;28;20194;-57
2023/06/08 10:02:18;;;;;;;3.28;2.97;;;;;;;24.71;56.53;98214.75;5012307;28;20688;-57
2023/06/08 10:04:53;;;;;;;5.43;2.60;;;;;;;24.95;55.04;98227.44;5012302;28;20186;-56
2023/06/08 10:07:26;;;;;;;3.78;2.75;;;;;;;25.16;54.90;98232.59;5012195;28;20182;-56
2023/06/08 10:09:59;;;;;;;4.85;2.72;;;;;;;25.10;54.32;98212.22;4973085;28;20227;-57
2023/06/08 10:12:29;;;;;;;4.35;2.97;;;;;;;25.34;54.16;98226.72;4973041;28;20200;-57
2023/06/08 10:14:56;;;;;;;4.78;2.53;;;;;;;25.31;54.37;98222.63;4973084;28;20231;-57
2023/06/08 10:17:23;;;;;;;3.22;2.13;;;;;;;25.26;52.91;98226.94;4986248;28;20190;-57
2023/06/08 10:19:49;;;;;;;4.00;3.08;;;;;;;25.34;52.92;98222.25;5031509;28;20194;-57
2023/06/08 10:22:17;;;;;;;2.50;2.30;;;;;;;25.50;50.95;98218.38;5031579;28;20324;-57
2023/06/08 10:24:46;;;;;;;5.25;2.40;;;;;;;25.61;51.34;98213.28;5031614;28;20197;-57
2023/06/08 10:27:28;;;;;;;3.63;2.53;;;;;;;25.65;51.96;98200.47;5031562;28;20611;-57
2023/06/08 10:29:55;;;;;;;2.38;2.17;;;;;;;25.41;49.66;98178.03;5031407;28;20197;-58
2023/06/08 10:32:32;;;;;;;5.45;2.78;;;;;;;25.58;51.18;98200.44;4991973;28;20194;-57
2023/06/08 10:35:01;;;;;;;4.43;2.92;;;;;;;25.44;49.92;98182.94;4992179;28;20195;-57
2023/06/08 10:37:28;;;;;;;3.97;2.30;;;;;;;25.58;48.94;98179.25;4991999;28;20194;-57
2023/06/08 10:39:54;;;;;;;2.50;2.30;;;;;;;25.82;47.88;98183.91;4996200;28;20179;-57
2023/06/08 10:42:20;;;;;;;5.22;2.95;;;;;;;25.98;46.87;98169.44;5031168;28;20205;-58
2023/06/08 10:44:53;;;;;;;3.08;2.75;;;;;;;26.33;47.67;98189.31;5031316;28;20733;-58
2023/06/08 10:47:19;;;;;;;2.55;2.28;;;;;;;26.41;46.78;98158.06;5031125;28;20189;-60
2023/06/08 10:49:45;;;;;;;3.13;2.15;;;;;;;26.76;44.69;98180.59;5031172;28;20193;-58
2023/06/08 10:52:17;;;;;;;4.38;2.40;;;;;;;26.93;45.33;98168.44;5031117;28;20284;-58
2023/06/08 10:54:53;;;;;;;2.42;2.22;;;;;;;26.92;45.04;98173.94;5031186;28;20171;-58
2023/06/08 10:57:49;;;;;;;4.95;2.38;;;;;;;26.94;45.47;98156.78;5011172;28;20284;-58
2023/06/08 11:00:22;;;;;;;3.47;2.33;;;;;;;27.14;45.32;98167.28;4991445;28;20610;-58
2023/06/08 11:02:48;;;;;;;4.72;2.33;;;;;;;27.33;44.73;98143.25;4996727;28;20229;-58
2023/06/08 11:05:15;;;;;;;2.45;2.25;;;;;;;27.54;44.15;98152.69;4991281;28;20291;-58
2023/06/08 11:07:41;;;;;;;2.80;2.50;;;;;;;27.58;43.67;98164.50;4991337;28;20545;-58
2023/06/08 11:10:07;;;;;;;3.25;2.38;;;;;;;27.25;43.78;98145.34;4971773;28;20210;-58
2023/06/08 11:12:32;;;;;;;3.33;2.25;;;;;;;27.49;43.39;98163.97;4971885;28;20198;-58
2023/06/08 11:14:59;;;;;;;4.50;2.03;;;;;;;27.37;41.72;98139.13;4971844;28;20198;-58
2023/06/08 11:17:25;;;;;;;2.67;2.40;;;;;;;27.54;42.46;98132.25;4971862;28;20215;-58
2023/06/08 11:19:51;;;;;;;2.35;2.17;;;;;;;27.79;42.62;98134.88;4971801;28;20307;-58
2023/06/08 11:22:16;;;;;;;4.13;2.28;;;;;;;27.83;42.40;98152.84;4971545;28;20719;-58
2023/06/08 11:24:43;;;;;;;5.97;2.45;;;;;;;27.73;42.50;98147.19;4971460;28;20572;-58
2023/06/08 11:27:16;;;;;;;2.40;2.20;;;;;;;27.78;41.03;98154.53;4971527;28;20243;-58
2023/06/08 11:29:41;;;;;;;3.25;2.25;;;;;;;27.56;41.09;98119.53;4970868;28;20200;-57
2023/06/08 11:32:11;;;;;;;2.38;2.17;;;;;;;27.80;40.38;98145.28;4955002;28;20624;-58
2023/06/08 11:34:37;;;;;;;2.47;2.13;;;;;;;27.98;39.31;98134.66;4952226;29;20614;-58